createdAt,value
2023-01-27T00:00:35.830Z,101903.25
2023-01-27T00:03:02.287Z,101900.44
2023-01-27T00:05:28.685Z,101898.03
2023-01-27T00:07:58.359Z,101904.47
2023-01-27T00:10:25.665Z,101896.78
2023-01-27T00:13:10.813Z,101899.22
2023-01-27T00:15:37.366Z,101899.63
2023-01-27T00:18:04.484Z,101902.03
2023-01-27T00:20:49.389Z,101903.69
2023-01-27T00:23:45.434Z,101908.50
2023-01-27T00:26:14.636Z,101910.94
2023-01-27T00:28:43.433Z,101911.72
2023-01-27T00:31:31.138Z,101902.03
2023-01-27T00:34:01.963Z,101909.28
2023-01-27T00:36:29.687Z,101910.09
2023-01-27T00:38:56.579Z,101910.09
2023-01-27T00:41:23.140Z,101903.25
2023-01-27T00:43:53.597Z,101907.66
2023-01-27T00:46:24.584Z,101908.88
2023-01-27T00:48:52.370Z,101908.06
2023-01-27T00:51:20.065Z,101918.94
2023-01-27T00:53:47.171Z,101917.72
2023-01-27T00:56:14.080Z,101927.84
2023-01-27T00:58:41.862Z,101933.47
2023-01-27T01:01:12.791Z,101933.47
2023-01-27T01:03:39.940Z,101924.59
2023-01-27T01:06:09.389Z,101937.50
2023-01-27T01:08:37.371Z,101933.88
2023-01-27T01:11:05.662Z,101940.72
2023-01-27T01:13:32.676Z,101934.25
2023-01-27T01:16:13.325Z,101926.56
2023-01-27T01:18:41.125Z,101936.25
2023-01-27T01:21:07.986Z,101935.06
2023-01-27T01:23:43.250Z,101947.94
2023-01-27T01:26:11.348Z,101941.50
2023-01-27T01:28:38.007Z,101948.75
2023-01-27T01:31:12.689Z,101928.53
2023-01-27T01:33:39.591Z,101940.25
2023-01-27T01:36:12.464Z,101949.53
2023-01-27T01:38:39.210Z,101957.63
2023-01-27T01:41:07.844Z,101949.50
2023-01-27T01:43:35.070Z,101957.22
2023-01-27T01:46:02.252Z,101939.03
2023-01-27T01:48:36.319Z,101943.03
2023-01-27T01:51:11.084Z,101955.97
2023-01-27T01:54:03.063Z,101952.72
2023-01-27T01:56:49.657Z,101953.56
2023-01-27T01:59:23.627Z,101954.34
2023-01-27T02:01:56.804Z,101948.69
2023-01-27T02:04:27.870Z,101951.91
2023-01-27T02:07:19.449Z,101959.97
2023-01-27T02:09:45.968Z,101968.03
2023-01-27T02:12:13.213Z,101957.97
2023-01-27T02:14:41.180Z,101943.81
2023-01-27T02:17:09.183Z,101964.38
2023-01-27T02:20:10.620Z,101962.00
2023-01-27T02:22:50.046Z,101962.38
2023-01-27T02:25:26.408Z,101963.56
2023-01-27T02:27:52.827Z,101965.59
2023-01-27T02:30:19.506Z,101965.59
2023-01-27T02:32:45.972Z,101966.41
2023-01-27T02:35:19.599Z,101976.50
2023-01-27T02:37:48.190Z,101969.59
2023-01-27T02:40:15.418Z,101974.06
2023-01-27T02:42:42.043Z,101975.25
2023-01-27T02:45:08.930Z,101980.88
2023-01-27T02:47:35.612Z,101980.88
2023-01-27T02:50:02.112Z,101989.38
2023-01-27T02:52:29.557Z,101987.75
2023-01-27T02:54:58.939Z,101990.19
2023-01-27T02:57:25.498Z,101993.81
2023-01-27T03:00:08.855Z,101997.03
2023-01-27T03:02:35.368Z,101997.03
2023-01-27T03:05:02.988Z,101995.41
2023-01-27T03:07:29.806Z,101996.63
2023-01-27T03:09:56.319Z,102004.28
2023-01-27T03:12:22.843Z,102004.28
2023-01-27T03:15:10.659Z,102010.38
2023-01-27T03:17:56.772Z,102009.13
2023-01-27T03:20:23.825Z,102026.50
2023-01-27T03:22:50.435Z,102010.75
2023-01-27T03:25:18.989Z,102022.06
2023-01-27T03:27:45.653Z,102014.41
2023-01-27T03:30:35.455Z,102033.38
2023-01-27T03:33:10.258Z,102020.44
2023-01-27T03:36:20.557Z,102017.22
2023-01-27T03:39:08.256Z,102036.22
2023-01-27T03:41:53.640Z,102044.69
2023-01-27T03:44:40.547Z,102035.81
2023-01-27T03:47:07.273Z,102040.66
2023-01-27T03:49:33.788Z,102043.88
2023-01-27T03:52:00.332Z,102043.50
2023-01-27T03:54:26.777Z,102038.63
2023-01-27T03:56:53.239Z,102048.75
2023-01-27T03:59:19.895Z,102051.16
2023-01-27T04:01:46.996Z,102058.41
2023-01-27T04:04:33.221Z,102063.69
2023-01-27T04:07:02.661Z,102068.53
2023-01-27T04:09:35.741Z,102065.69
2023-01-27T04:12:06.559Z,102060.03
2023-01-27T04:14:38.105Z,102075.41
2023-01-27T04:17:12.672Z,102072.16
2023-01-27T04:19:39.286Z,102063.31
2023-01-27T04:22:06.587Z,102082.69
2023-01-27T04:24:33.640Z,102072.16
2023-01-27T04:27:03.369Z,102075.78
2023-01-27T04:29:32.816Z,102081.44
2023-01-27T04:31:59.360Z,102081.06
2023-01-27T04:34:26.967Z,102085.88
2023-01-27T04:36:54.221Z,102091.56
2023-01-27T04:39:20.735Z,102087.91
2023-01-27T04:41:49.026Z,102096.81
2023-01-27T04:44:15.759Z,102107.75
2023-01-27T04:46:42.187Z,102109.75
2023-01-27T04:49:08.705Z,102103.34
2023-01-27T04:51:35.314Z,102112.22
2023-01-27T04:54:03.700Z,102112.56
2023-01-27T04:56:38.506Z,102123.09
2023-01-27T04:59:07.899Z,102123.88
2023-01-27T05:01:34.508Z,102124.34
2023-01-27T05:04:01.363Z,102125.13
2023-01-27T05:06:28.224Z,102130.78
2023-01-27T05:08:55.050Z,102125.13
2023-01-27T05:11:21.730Z,102131.59
2023-01-27T05:13:48.597Z,102134.41
2023-01-27T05:16:20.575Z,102139.28
2023-01-27T05:18:48.726Z,102130.41
2023-01-27T05:21:18.603Z,102138.88
2023-01-27T05:23:45.327Z,102144.56
2023-01-27T05:26:18.461Z,102140.91
2023-01-27T05:28:46.593Z,102146.56
2023-01-27T05:31:15.966Z,102146.56
2023-01-27T05:33:42.706Z,102144.13
2023-01-27T05:36:12.216Z,102142.13
2023-01-27T05:38:39.247Z,102144.13
2023-01-27T05:41:07.244Z,102149.41
2023-01-27T05:43:35.683Z,102146.56
2023-01-27T05:46:09.484Z,102154.25
2023-01-27T05:48:37.244Z,102156.69
2023-01-27T05:51:05.598Z,102147.44
2023-01-27T05:53:32.467Z,102158.72
2023-01-27T05:55:59.226Z,102159.94
2023-01-27T05:58:26.049Z,102154.69
2023-01-27T06:00:53.871Z,102155.06
2023-01-27T06:03:21.208Z,102160.72
2023-01-27T06:05:56.333Z,102152.25
2023-01-27T06:08:27.090Z,102161.16
2023-01-27T06:10:53.984Z,102152.25
2023-01-27T06:13:24.558Z,102162.75
2023-01-27T06:15:51.517Z,102147.41
2023-01-27T06:18:19.381Z,102157.09
2023-01-27T06:20:46.323Z,102151.44
2023-01-27T06:23:14.765Z,102166.41
2023-01-27T06:25:47.287Z,102164.78
2023-01-27T06:28:28.280Z,102158.72
2023-01-27T06:30:56.143Z,102164.78
2023-01-27T06:33:22.870Z,102163.97
2023-01-27T06:35:49.384Z,102174.09
2023-01-27T06:38:15.820Z,102171.25
2023-01-27T06:40:43.042Z,102170.03
2023-01-27T06:43:14.552Z,102183.00
2023-01-27T06:45:41.350Z,102185.41
2023-01-27T06:48:08.928Z,102187.81
2023-01-27T06:50:36.070Z,102197.53
2023-01-27T06:53:05.131Z,102202.38
2023-01-27T06:55:32.010Z,102202.78
2023-01-27T06:57:58.604Z,102197.53
2023-01-27T07:00:25.196Z,102197.53
2023-01-27T07:02:53.763Z,102208.88
2023-01-27T07:05:20.349Z,102210.47
2023-01-27T07:07:46.819Z,102209.66
2023-01-27T07:10:13.523Z,102225.44
2023-01-27T07:12:40.044Z,102226.66
2023-01-27T07:15:08.652Z,102227.44
2023-01-27T07:17:35.891Z,102233.09
2023-01-27T07:20:03.739Z,102239.59
2023-01-27T07:22:30.229Z,102235.53
2023-01-27T07:24:57.106Z,102254.16
2023-01-27T07:27:24.424Z,102250.91
2023-01-27T07:29:51.155Z,102255.34
2023-01-27T07:32:18.161Z,102258.19
2023-01-27T07:34:44.578Z,102267.47
2023-01-27T07:37:11.227Z,102269.50
2023-01-27T07:39:38.295Z,102278.78
2023-01-27T07:42:05.841Z,102279.22
2023-01-27T07:44:32.399Z,102282.44
2023-01-27T07:46:59.099Z,102287.28
2023-01-27T07:49:27.514Z,102285.66
2023-01-27T07:51:54.297Z,102281.22
2023-01-27T07:54:21.040Z,102292.94
2023-01-27T07:56:47.583Z,102307.91
2023-01-27T07:59:14.189Z,102295.78
2023-01-27T08:01:41.803Z,102306.69
2023-01-27T08:04:08.454Z,102308.72
2023-01-27T08:06:35.031Z,102292.16
2023-01-27T08:09:01.484Z,102309.50
2023-01-27T08:11:27.894Z,102300.22
2023-01-27T08:13:54.352Z,102307.50
2023-01-27T08:16:21.252Z,102305.50
2023-01-27T08:18:49.990Z,102309.53
2023-01-27T08:21:16.448Z,102315.97
2023-01-27T08:23:42.865Z,102307.94
2023-01-27T08:26:09.316Z,102300.22
2023-01-27T08:28:38.095Z,102305.09
2023-01-27T08:31:06.992Z,102307.09
2023-01-27T08:33:33.768Z,102319.63
2023-01-27T08:36:09.163Z,102312.34
2023-01-27T08:38:37.485Z,102307.09
2023-01-27T08:41:09.580Z,102310.31
2023-01-27T08:43:36.550Z,102306.31
2023-01-27T08:46:04.429Z,102313.97
2023-01-27T08:48:31.806Z,102313.16
2023-01-27T08:51:02.677Z,102324.09
2023-01-27T08:53:30.114Z,102318.81
2023-01-27T08:55:58.161Z,102323.66
2023-01-27T08:58:25.110Z,102324.47
2023-01-27T09:00:51.546Z,102324.91
2023-01-27T09:03:18.467Z,102327.75
2023-01-27T09:05:44.952Z,102326.13
2023-01-27T09:08:11.413Z,102324.47
2023-01-27T09:10:41.827Z,102328.13
2023-01-27T09:13:09.094Z,102320.44
2023-01-27T09:15:36.598Z,102329.72
2023-01-27T09:18:06.418Z,102330.13
2023-01-27T09:20:34.435Z,102322.06
2023-01-27T09:23:01.282Z,102318.41
2023-01-27T09:25:28.030Z,102325.31
2023-01-27T09:27:55.646Z,102347.94
2023-01-27T09:30:22.508Z,102343.06
2023-01-27T09:32:49.650Z,102349.53
2023-01-27T09:35:16.539Z,102362.09
2023-01-27T09:37:57.925Z,102349.94
2023-01-27T09:40:57.113Z,102350.38
2023-01-27T09:43:40.790Z,102350.38
2023-01-27T09:47:01.215Z,102349.94
2023-01-27T09:49:44.937Z,102351.97
2023-01-27T09:52:20.733Z,102361.69
2023-01-27T09:54:58.459Z,102354.41
2023-01-27T09:57:50.350Z,102352.38
2023-01-27T10:00:19.986Z,102351.97
2023-01-27T10:03:05.140Z,102347.53
2023-01-27T10:06:01.182Z,102353.59
2023-01-27T10:08:37.269Z,102353.59
2023-01-27T10:11:18.880Z,102358.03
2023-01-27T10:14:18.279Z,102359.25
2023-01-27T10:17:07.592Z,102356.44
2023-01-27T10:20:20.928Z,102349.16
2023-01-27T10:22:57.823Z,102356.84
2023-01-27T10:25:46.839Z,102360.47
2023-01-27T10:28:15.706Z,102357.63
2023-01-27T10:31:03.004Z,102353.19
2023-01-27T10:33:46.108Z,102345.50
2023-01-27T10:36:19.303Z,102351.16
2023-01-27T10:39:04.468Z,102360.03
2023-01-27T10:41:55.299Z,102365.72
2023-01-27T10:44:44.731Z,102364.13
2023-01-27T10:47:21.259Z,102373.00
2023-01-27T10:49:56.214Z,102367.34
2023-01-27T10:52:46.424Z,102366.53
2023-01-27T10:55:28.313Z,102364.50
2023-01-27T10:58:03.379Z,102366.53
2023-01-27T11:01:19.397Z,102368.94
2023-01-27T11:03:35.313Z,102363.28
2023-01-27T11:06:09.291Z,102363.28
2023-01-27T11:08:38.108Z,102370.97
2023-01-27T11:11:27.147Z,102364.91
2023-01-27T11:14:02.467Z,102366.53
2023-01-27T11:16:34.570Z,102364.13
2023-01-27T11:19:13.461Z,102356.41
2023-01-27T11:21:41.444Z,102339.03
2023-01-27T11:24:21.721Z,102348.72
2023-01-27T11:27:03.555Z,102352.78
2023-01-27T11:29:39.487Z,102360.47
2023-01-27T11:32:22.907Z,102361.66
2023-01-27T11:35:08.183Z,102363.31
2023-01-27T11:37:40.778Z,102351.97
2023-01-27T11:40:35.578Z,102344.72
2023-01-27T11:43:03.195Z,102341.88
2023-01-27T11:45:36.504Z,102343.47
2023-01-27T11:48:07.759Z,102343.50
2023-01-27T11:50:36.451Z,102340.66
2023-01-27T11:53:29.709Z,102340.25
2023-01-27T11:56:01.265Z,102345.09
2023-01-27T11:58:34.087Z,102343.09
2023-01-27T12:01:05.524Z,102341.47
2023-01-27T12:04:11.216Z,102338.63
2023-01-27T12:06:44.487Z,102344.28
2023-01-27T12:09:35.128Z,102347.50
2023-01-27T12:12:25.634Z,102343.47
2023-01-27T12:14:55.443Z,102349.53
2023-01-27T12:17:30.703Z,102334.19
2023-01-27T12:20:08.194Z,102340.25
2023-01-27T12:22:38.740Z,102336.19
2023-01-27T12:25:13.891Z,102326.09
2023-01-27T12:27:47.880Z,102332.94
2023-01-27T12:30:34.637Z,102318.41
2023-01-27T12:33:11.005Z,102322.03
2023-01-27T12:35:37.490Z,102328.09
2023-01-27T12:38:16.504Z,102326.91
2023-01-27T12:40:46.311Z,102322.88
2023-01-27T12:43:18.818Z,102317.22
2023-01-27T12:46:02.043Z,102339.44
2023-01-27T12:48:31.247Z,102331.75
2023-01-27T12:51:15.303Z,102339.84
2023-01-27T12:53:44.077Z,102335.78
2023-01-27T12:56:22.904Z,102331.75
2023-01-27T12:58:55.158Z,102335.38
2023-01-27T13:01:31.981Z,102338.63
2023-01-27T13:04:04.620Z,102331.34
2023-01-27T13:06:50.425Z,102327.72
2023-01-27T13:09:27.020Z,102323.69
2023-01-27T13:11:56.403Z,102330.53
2023-01-27T13:14:23.164Z,102328.94
2023-01-27T13:16:54.807Z,102332.56
2023-01-27T13:19:33.045Z,102334.59
2023-01-27T13:22:00.389Z,102322.84
2023-01-27T13:24:42.562Z,102334.16
2023-01-27T13:27:17.366Z,102328.50
2023-01-27T13:29:59.823Z,102327.72
2023-01-27T13:32:30.642Z,102335.78
2023-01-27T13:35:20.852Z,102339.03
2023-01-27T13:38:04.506Z,102328.09
2023-01-27T13:40:37.711Z,102338.63
2023-01-27T13:43:33.681Z,102335.00
2023-01-27T13:46:26.123Z,102328.13
2023-01-27T13:48:59.395Z,102333.38
2023-01-27T13:51:29.687Z,102334.56
2023-01-27T13:54:01.235Z,102343.88
2023-01-27T13:56:53.168Z,102343.06
2023-01-27T13:59:47.368Z,102341.88
2023-01-27T14:02:40.918Z,102331.34
2023-01-27T14:05:31.608Z,102339.03
2023-01-27T14:08:18.161Z,102340.66
2023-01-27T14:11:18.054Z,102343.06
2023-01-27T14:13:57.549Z,102334.16
2023-01-27T14:16:55.881Z,102336.59
2023-01-27T14:19:34.367Z,102341.47
2023-01-27T14:22:35.982Z,102332.97
2023-01-27T14:25:20.315Z,102347.13
2023-01-27T14:27:48.543Z,102336.22
2023-01-27T14:30:29.047Z,102343.47
2023-01-27T14:33:05.856Z,102342.28
2023-01-27T14:36:04.491Z,102335.00
2023-01-27T14:38:49.254Z,102333.41
2023-01-27T14:41:35.867Z,102328.53
2023-01-27T14:44:38.354Z,102332.56
2023-01-27T14:47:30.741Z,102328.53
2023-01-27T14:50:24.950Z,102332.97
2023-01-27T14:53:08.104Z,102326.50
2023-01-27T14:55:48.559Z,102335.81
2023-01-27T14:58:36.761Z,102325.72
2023-01-27T15:01:20.668Z,102319.66
2023-01-27T15:04:05.146Z,102324.47
2023-01-27T15:06:38.995Z,102326.50
2023-01-27T15:09:20.601Z,102328.94
2023-01-27T15:12:07.007Z,102324.47
2023-01-27T15:15:04.056Z,102341.06
2023-01-27T15:17:42.527Z,102348.34
2023-01-27T15:20:30.577Z,102349.97
2023-01-27T15:23:13.481Z,102352.78
2023-01-27T15:25:46.239Z,102343.50
2023-01-27T15:28:15.289Z,102352.78
2023-01-27T15:31:09.671Z,102361.69
2023-01-27T15:33:50.114Z,102365.72
2023-01-27T15:36:32.245Z,102363.28
2023-01-27T15:39:09.170Z,102367.75
2023-01-27T15:41:35.933Z,102365.72
2023-01-27T15:44:22.383Z,102367.75
2023-01-27T15:46:50.965Z,102379.47
2023-01-27T15:49:22.553Z,102377.06
2023-01-27T15:51:53.075Z,102384.31
2023-01-27T15:54:26.620Z,102389.16
2023-01-27T15:56:55.031Z,102387.97
2023-01-27T15:59:30.349Z,102383.91
2023-01-27T16:02:04.877Z,102378.66
2023-01-27T16:04:33.327Z,102394.44
2023-01-27T16:07:02.839Z,102396.44
2023-01-27T16:09:50.949Z,102392.41
2023-01-27T16:12:23.455Z,102395.25
2023-01-27T16:15:15.929Z,102397.66
2023-01-27T16:18:07.771Z,102403.72
2023-01-27T16:20:43.588Z,102400.47
2023-01-27T16:23:41.438Z,102406.97
2023-01-27T16:26:19.574Z,102404.94
2023-01-27T16:28:51.965Z,102410.97
2023-01-27T16:31:24.652Z,102420.28
2023-01-27T16:33:58.401Z,102424.72
2023-01-27T16:36:30.388Z,102415.81
2023-01-27T16:39:21.063Z,102419.88
2023-01-27T16:41:57.109Z,102427.13
2023-01-27T16:44:43.387Z,102424.69
2023-01-27T16:47:24.301Z,102423.09
2023-01-27T16:49:53.679Z,102427.13
2023-01-27T16:52:40.454Z,102431.59
2023-01-27T16:55:20.337Z,102431.59
2023-01-27T16:57:46.787Z,102432.00
2023-01-27T17:00:22.975Z,102435.63
2023-01-27T17:02:52.180Z,102441.28
2023-01-27T17:05:19.698Z,102439.66
2023-01-27T17:08:04.538Z,102445.69
2023-01-27T17:10:35.412Z,102442.06
2023-01-27T17:13:02.215Z,102444.91
2023-01-27T17:15:34.404Z,102447.72
2023-01-27T17:18:03.071Z,102446.09
2023-01-27T17:20:32.254Z,102447.31
2023-01-27T17:23:00.514Z,102446.50
2023-01-27T17:25:35.563Z,102452.16
2023-01-27T17:28:10.244Z,102461.03
2023-01-27T17:30:39.943Z,102452.56
2023-01-27T17:33:14.466Z,102447.31
2023-01-27T17:35:41.236Z,102446.88
2023-01-27T17:38:14.920Z,102443.25
2023-01-27T17:40:44.240Z,102463.06
2023-01-27T17:43:31.924Z,102446.50
2023-01-27T17:46:10.613Z,102468.31
2023-01-27T17:48:41.183Z,102458.19
2023-01-27T17:51:09.993Z,102454.97
2023-01-27T17:53:40.089Z,102455.38
2023-01-27T17:56:21.354Z,102465.06
2023-01-27T17:58:52.596Z,102460.63
2023-01-27T18:01:20.709Z,102454.53
2023-01-27T18:03:52.972Z,102455.38
2023-01-27T18:06:23.145Z,102459.78
2023-01-27T18:08:52.908Z,102468.28
2023-01-27T18:11:33.744Z,102470.69
2023-01-27T18:14:09.268Z,102469.91
2023-01-27T18:16:36.038Z,102454.53
2023-01-27T18:19:07.963Z,102451.31
2023-01-27T18:21:35.573Z,102464.25
2023-01-27T18:24:15.462Z,102469.06
2023-01-27T18:26:46.812Z,102481.22
2023-01-27T18:29:22.789Z,102469.88
2023-01-27T18:31:57.891Z,102472.69
2023-01-27T18:34:24.391Z,102467.03
2023-01-27T18:36:56.173Z,102470.69
2023-01-27T18:39:28.406Z,102471.09
2023-01-27T18:41:54.929Z,102465.00
2023-01-27T18:44:27.180Z,102469.84
2023-01-27T18:47:20.852Z,102477.94
2023-01-27T18:50:00.744Z,102481.16
2023-01-27T18:52:28.240Z,102481.94
2023-01-27T18:55:26.202Z,102482.78
2023-01-27T18:57:57.756Z,102489.25
2023-01-27T19:00:27.255Z,102475.09
2023-01-27T19:02:57.012Z,102485.19
2023-01-27T19:05:27.116Z,102484.38
2023-01-27T19:07:53.633Z,102488.84
2023-01-27T19:10:25.880Z,102485.97
2023-01-27T19:12:53.026Z,102491.63
2023-01-27T19:15:23.733Z,102502.13
2023-01-27T19:17:53.069Z,102500.53
2023-01-27T19:20:22.402Z,102503.38
2023-01-27T19:22:50.229Z,102487.59
2023-01-27T19:25:17.302Z,102490.44
2023-01-27T19:27:48.639Z,102496.47
2023-01-27T19:30:25.069Z,102511.41
2023-01-27T19:32:53.782Z,102489.97
2023-01-27T19:35:20.701Z,102492.41
2023-01-27T19:37:47.469Z,102492.84
2023-01-27T19:40:21.980Z,102493.63
2023-01-27T19:42:48.822Z,102499.28
2023-01-27T19:45:17.549Z,102502.13
2023-01-27T19:47:46.914Z,102489.59
2023-01-27T19:50:26.150Z,102488.38
2023-01-27T19:52:52.735Z,102480.28
2023-01-27T19:55:20.740Z,102488.78
2023-01-27T19:57:47.733Z,102490.81
2023-01-27T20:00:22.339Z,102494.84
2023-01-27T20:02:48.938Z,102506.53
2023-01-27T20:05:15.717Z,102507.75
2023-01-27T20:07:43.679Z,102504.50
2023-01-27T20:10:17.795Z,102515.00
2023-01-27T20:12:51.472Z,102511.38
2023-01-27T20:15:18.327Z,102503.28
2023-01-27T20:17:44.795Z,102511.78
2023-01-27T20:20:13.167Z,102512.56
2023-01-27T20:22:39.734Z,102513.81
2023-01-27T20:25:06.612Z,102516.63
2023-01-27T20:27:33.073Z,102511.31
2023-01-27T20:29:59.727Z,102514.19
2023-01-27T20:32:26.127Z,102514.59
2023-01-27T20:34:52.584Z,102519.03
2023-01-27T20:37:18.996Z,102506.50
2023-01-27T20:39:45.596Z,102510.53
2023-01-27T20:42:11.997Z,102504.06
2023-01-27T20:44:38.409Z,102510.94
2023-01-27T20:47:04.877Z,102506.13
2023-01-27T20:49:31.261Z,102501.25
2023-01-27T20:51:58.207Z,102507.31
2023-01-27T20:54:24.611Z,102495.59
2023-01-27T20:56:51.073Z,102500.03
2023-01-27T20:59:17.542Z,102490.75
2023-01-27T21:01:46.082Z,102489.94
2023-01-27T21:04:12.758Z,102494.78
2023-01-27T21:06:39.280Z,102495.16
2023-01-27T21:09:05.726Z,102489.09
2023-01-27T21:11:32.521Z,102484.28
2023-01-27T21:13:59.421Z,102481.84
2023-01-27T21:16:27.836Z,102473.34
2023-01-27T21:18:54.307Z,102479.44
2023-01-27T21:21:27.416Z,102480.22
2023-01-27T21:23:55.413Z,102480.22
2023-01-27T21:26:22.564Z,102479.44
2023-01-27T21:28:49.081Z,102479.38
2023-01-27T21:31:18.581Z,102479.81
2023-01-27T21:33:45.770Z,102482.66
2023-01-27T21:36:13.184Z,102480.16
2023-01-27T21:38:40.285Z,102496.34
2023-01-27T21:41:13.150Z,102492.31
2023-01-27T21:43:58.652Z,102491.91
2023-01-27T21:46:25.122Z,102488.25
2023-01-27T21:48:51.772Z,102486.63
2023-01-27T21:51:18.180Z,102485.03
2023-01-27T21:53:44.711Z,102501.16
2023-01-27T21:56:11.696Z,102491.47
2023-01-27T21:58:38.117Z,102487.03
2023-01-27T22:01:06.531Z,102475.34
2023-01-27T22:03:33.269Z,102488.25
2023-01-27T22:06:05.195Z,102488.22
2023-01-27T22:08:31.973Z,102487.84
2023-01-27T22:11:05.526Z,102480.16
2023-01-27T22:13:33.080Z,102478.56
2023-01-27T22:16:00.231Z,102472.88
2023-01-27T22:18:26.828Z,102474.09
2023-01-27T22:20:53.427Z,102476.94
2023-01-27T22:23:20.446Z,102456.69
2023-01-27T22:25:51.595Z,102465.19
2023-01-27T22:28:18.216Z,102470.47
2023-01-27T22:30:45.007Z,102462.75
2023-01-27T22:33:12.448Z,102475.69
2023-01-27T22:35:39.479Z,102468.84
2023-01-27T22:38:06.411Z,102480.94
2023-01-27T22:40:32.911Z,102474.09
2023-01-27T22:42:59.298Z,102480.94
2023-01-27T22:45:25.931Z,102476.91
2023-01-27T22:47:52.590Z,102476.09
2023-01-27T22:50:19.373Z,102483.38
2023-01-27T22:52:45.861Z,102478.50
2023-01-27T22:55:13.361Z,102477.72
2023-01-27T22:57:40.051Z,102476.91
2023-01-27T23:00:07.304Z,102469.63
2023-01-27T23:02:35.930Z,102476.47
2023-01-27T23:05:02.409Z,102479.28
2023-01-27T23:07:28.964Z,102483.75
2023-01-27T23:09:55.530Z,102486.59
2023-01-27T23:12:21.934Z,102482.94
2023-01-27T23:14:48.359Z,102489.00
2023-01-27T23:17:15.155Z,102493.41
2023-01-27T23:19:42.353Z,102473.63
2023-01-27T23:22:08.944Z,102491.41
2023-01-27T23:24:35.476Z,102495.44
2023-01-27T23:27:02.135Z,102489.00
2023-01-27T23:29:29.470Z,102484.13
2023-01-27T23:31:56.144Z,102480.13
2023-01-27T23:34:22.875Z,102484.94
2023-01-27T23:36:49.403Z,102486.56
2023-01-27T23:39:16.415Z,102477.22
2023-01-27T23:41:42.871Z,102484.13
2023-01-27T23:44:10.821Z,102480.50
2023-01-27T23:46:37.683Z,102476.84
2023-01-27T23:49:04.516Z,102469.59
2023-01-27T23:51:31.034Z,102467.97
2023-01-27T23:53:57.498Z,102475.25
2023-01-27T23:56:23.999Z,102465.94
2023-01-27T23:58:50.704Z,102469.59
